sensor_id;sensor_type;location;lat;lon;timestamp;P1;durP1;ratioP1;P2;durP2;ratioP2
16822;SDS011;8528;49.976;11.858;2024-03-17T00:01:11;3.43;;;1.83;;
16822;SDS011;8528;49.976;11.858;2024-03-17T00:03:37;4.50;;;2.27;;
16822;SDS011;8528;49.976;11.858;2024-03-17T00:06:03;5.00;;;1.93;;
16822;SDS011;8528;49.976;11.858;2024-03-17T00:08:29;3.80;;;2.00;;
16822;SDS011;8528;49.976;11.858;2024-03-17T00:10:55;2.00;;;1.80;;
16822;SDS011;8528;49.976;11.858;2024-03-17T00:13:22;3.73;;;2.10;;
16822;SDS011;8528;49.976;11.858;2024-03-17T00:15:49;4.63;;;1.90;;
16822;SDS011;8528;49.976;11.858;2024-03-17T00:18:15;3.23;;;2.20;;
16822;SDS011;8528;49.976;11.858;2024-03-17T00:20:42;3.50;;;2.00;;
16822;SDS011;8528;49.976;11.858;2024-03-17T00:23:08;6.53;;;2.33;;
16822;SDS011;8528;49.976;11.858;2024-03-17T00:25:37;4.97;;;2.27;;
16822;SDS011;8528;49.976;11.858;2024-03-17T00:28:03;3.07;;;2.33;;
16822;SDS011;8528;49.976;11.858;2024-03-17T00:30:30;9.60;;;2.67;;
16822;SDS011;8528;49.976;11.858;2024-03-17T00:32:57;3.30;;;2.37;;
16822;SDS011;8528;49.976;11.858;2024-03-17T00:35:23;2.63;;;2.10;;
16822;SDS011;8528;49.976;11.858;2024-03-17T00:37:50;3.97;;;2.07;;
16822;SDS011;8528;49.976;11.858;2024-03-17T00:40:17;2.60;;;2.03;;
16822;SDS011;8528;49.976;11.858;2024-03-17T00:42:43;2.30;;;2.10;;
16822;SDS011;8528;49.976;11.858;2024-03-17T00:45:12;2.87;;;1.93;;
16822;SDS011;8528;49.976;11.858;2024-03-17T00:47:38;2.47;;;2.00;;
16822;SDS011;8528;49.976;11.858;2024-03-17T00:50:04;3.97;;;2.00;;
16822;SDS011;8528;49.976;11.858;2024-03-17T00:52:37;3.73;;;2.07;;
16822;SDS011;8528;49.976;11.858;2024-03-17T00:55:03;3.00;;;2.10;;
16822;SDS011;8528;49.976;11.858;2024-03-17T00:57:29;4.10;;;2.00;;
16822;SDS011;8528;49.976;11.858;2024-03-17T00:59:55;2.40;;;2.10;;
16822;SDS011;8528;49.976;11.858;2024-03-17T01:02:22;3.50;;;2.17;;
16822;SDS011;8528;49.976;11.858;2024-03-17T01:04:47;3.23;;;2.37;;
16822;SDS011;8528;49.976;11.858;2024-03-17T01:07:13;3.87;;;2.30;;
16822;SDS011;8528;49.976;11.858;2024-03-17T01:09:39;2.80;;;1.97;;
16822;SDS011;8528;49.976;11.858;2024-03-17T01:12:06;3.40;;;2.67;;
16822;SDS011;8528;49.976;11.858;2024-03-17T01:14:31;3.80;;;2.20;;
16822;SDS011;8528;49.976;11.858;2024-03-17T01:16:59;2.20;;;2.00;;
16822;SDS011;8528;49.976;11.858;2024-03-17T01:19:25;4.67;;;2.53;;
16822;SDS011;8528;49.976;11.858;2024-03-17T01:21:52;4.00;;;2.60;;
16822;SDS011;8528;49.976;11.858;2024-03-17T01:24:18;4.80;;;2.40;;
16822;SDS011;8528;49.976;11.858;2024-03-17T01:26:44;3.47;;;2.30;;
16822;SDS011;8528;49.976;11.858;2024-03-17T01:29:11;4.17;;;2.00;;
16822;SDS011;8528;49.976;11.858;2024-03-17T01:31:37;3.33;;;2.50;;
16822;SDS011;8528;49.976;11.858;2024-03-17T01:34:03;3.43;;;2.00;;
16822;SDS011;8528;49.976;11.858;2024-03-17T01:36:29;3.43;;;2.10;;
16822;SDS011;8528;49.976;11.858;2024-03-17T01:38:55;2.50;;;2.27;;
16822;SDS011;8528;49.976;11.858;2024-03-17T01:41:21;4.77;;;2.30;;
16822;SDS011;8528;49.976;11.858;2024-03-17T01:43:47;4.97;;;2.53;;
16822;SDS011;8528;49.976;11.858;2024-03-17T01:46:13;3.53;;;2.30;;
16822;SDS011;8528;49.976;11.858;2024-03-17T01:48:41;3.33;;;2.40;;
16822;SDS011;8528;49.976;11.858;2024-03-17T01:51:07;2.67;;;2.43;;
16822;SDS011;8528;49.976;11.858;2024-03-17T01:53:36;3.13;;;2.50;;
16822;SDS011;8528;49.976;11.858;2024-03-17T01:56:03;7.30;;;3.00;;
16822;SDS011;8528;49.976;11.858;2024-03-17T01:58:30;4.33;;;2.53;;
16822;SDS011;8528;49.976;11.858;2024-03-17T02:00:56;3.80;;;2.57;;
16822;SDS011;8528;49.976;11.858;2024-03-17T02:03:22;2.33;;;2.10;;
16822;SDS011;8528;49.976;11.858;2024-03-17T02:05:48;3.37;;;2.43;;
16822;SDS011;8528;49.976;11.858;2024-03-17T02:08:15;5.50;;;2.40;;
16822;SDS011;8528;49.976;11.858;2024-03-17T02:10:41;2.60;;;2.40;;
16822;SDS011;8528;49.976;11.858;2024-03-17T02:13:07;4.00;;;2.40;;
16822;SDS011;8528;49.976;11.858;2024-03-17T02:15:33;2.97;;;2.50;;
16822;SDS011;8528;49.976;11.858;2024-03-17T02:17:59;3.73;;;2.33;;
16822;SDS011;8528;49.976;11.858;2024-03-17T02:20:26;4.87;;;2.47;;
16822;SDS011;8528;49.976;11.858;2024-03-17T02:23:11;3.33;;;2.33;;
16822;SDS011;8528;49.976;11.858;2024-03-17T02:25:37;3.93;;;2.60;;
16822;SDS011;8528;49.976;11.858;2024-03-17T02:28:03;5.00;;;2.60;;
16822;SDS011;8528;49.976;11.858;2024-03-17T02:30:30;2.40;;;2.10;;
16822;SDS011;8528;49.976;11.858;2024-03-17T02:32:56;3.23;;;2.07;;
16822;SDS011;8528;49.976;11.858;2024-03-17T02:35:22;4.10;;;2.70;;
16822;SDS011;8528;49.976;11.858;2024-03-17T02:37:49;4.67;;;2.63;;
16822;SDS011;8528;49.976;11.858;2024-03-17T02:40:15;3.53;;;2.63;;
16822;SDS011;8528;49.976;11.858;2024-03-17T02:42:42;4.53;;;2.60;;
16822;SDS011;8528;49.976;11.858;2024-03-17T02:45:10;3.23;;;2.40;;
16822;SDS011;8528;49.976;11.858;2024-03-17T02:47:40;5.37;;;2.57;;
16822;SDS011;8528;49.976;11.858;2024-03-17T02:50:06;3.27;;;2.73;;
16822;SDS011;8528;49.976;11.858;2024-03-17T02:52:34;3.50;;;2.47;;
16822;SDS011;8528;49.976;11.858;2024-03-17T02:55:00;4.77;;;2.90;;
16822;SDS011;8528;49.976;11.858;2024-03-17T02:57:26;3.43;;;2.90;;
16822;SDS011;8528;49.976;11.858;2024-03-17T02:59:56;2.87;;;2.57;;
16822;SDS011;8528;49.976;11.858;2024-03-17T03:02:22;3.33;;;2.70;;
16822;SDS011;8528;49.976;11.858;2024-03-17T03:04:48;3.40;;;2.47;;
16822;SDS011;8528;49.976;11.858;2024-03-17T03:07:14;4.17;;;2.63;;
16822;SDS011;8528;49.976;11.858;2024-03-17T03:09:40;3.33;;;2.53;;
16822;SDS011;8528;49.976;11.858;2024-03-17T03:12:06;3.30;;;2.50;;
16822;SDS011;8528;49.976;11.858;2024-03-17T03:14:33;3.07;;;2.33;;
16822;SDS011;8528;49.976;11.858;2024-03-17T03:16:59;3.10;;;2.80;;
16822;SDS011;8528;49.976;11.858;2024-03-17T03:19:26;5.10;;;2.90;;
16822;SDS011;8528;49.976;11.858;2024-03-17T03:21:52;4.27;;;2.87;;
16822;SDS011;8528;49.976;11.858;2024-03-17T03:24:19;3.00;;;2.60;;
16822;SDS011;8528;49.976;11.858;2024-03-17T03:26:45;2.50;;;2.23;;
16822;SDS011;8528;49.976;11.858;2024-03-17T03:29:11;3.70;;;2.80;;
16822;SDS011;8528;49.976;11.858;2024-03-17T03:31:39;3.53;;;2.40;;
16822;SDS011;8528;49.976;11.858;2024-03-17T03:34:06;4.93;;;2.50;;
16822;SDS011;8528;49.976;11.858;2024-03-17T03:36:37;3.60;;;2.70;;
16822;SDS011;8528;49.976;11.858;2024-03-17T03:39:04;3.37;;;2.77;;
16822;SDS011;8528;49.976;11.858;2024-03-17T03:41:30;2.97;;;2.67;;
16822;SDS011;8528;49.976;11.858;2024-03-17T03:43:58;6.97;;;2.53;;
16822;SDS011;8528;49.976;11.858;2024-03-17T03:46:24;5.70;;;2.63;;
16822;SDS011;8528;49.976;11.858;2024-03-17T03:48:51;3.20;;;2.53;;
16822;SDS011;8528;49.976;11.858;2024-03-17T03:51:16;3.20;;;2.47;;
16822;SDS011;8528;49.976;11.858;2024-03-17T03:53:42;3.00;;;2.70;;
16822;SDS011;8528;49.976;11.858;2024-03-17T03:56:08;2.60;;;2.40;;
16822;SDS011;8528;49.976;11.858;2024-03-17T03:58:36;3.43;;;2.20;;
16822;SDS011;8528;49.976;11.858;2024-03-17T04:01:09;3.67;;;2.83;;
16822;SDS011;8528;49.976;11.858;2024-03-17T04:03:46;2.83;;;2.43;;
16822;SDS011;8528;49.976;11.858;2024-03-17T04:06:13;2.57;;;2.33;;
16822;SDS011;8528;49.976;11.858;2024-03-17T04:08:41;2.63;;;2.30;;
16822;SDS011;8528;49.976;11.858;2024-03-17T04:11:07;2.80;;;2.50;;
16822;SDS011;8528;49.976;11.858;2024-03-17T04:13:34;3.43;;;2.50;;
16822;SDS011;8528;49.976;11.858;2024-03-17T04:16:00;2.73;;;2.20;;
16822;SDS011;8528;49.976;11.858;2024-03-17T04:18:30;3.67;;;2.53;;
16822;SDS011;8528;49.976;11.858;2024-03-17T04:20:57;3.43;;;2.60;;
16822;SDS011;8528;49.976;11.858;2024-03-17T04:23:26;3.17;;;2.70;;
16822;SDS011;8528;49.976;11.858;2024-03-17T04:25:52;2.97;;;2.60;;
16822;SDS011;8528;49.976;11.858;2024-03-17T04:28:19;5.17;;;2.60;;
16822;SDS011;8528;49.976;11.858;2024-03-17T04:30:45;4.90;;;2.90;;
16822;SDS011;8528;49.976;11.858;2024-03-17T04:33:14;4.87;;;2.60;;
16822;SDS011;8528;49.976;11.858;2024-03-17T04:35:40;3.20;;;2.60;;
16822;SDS011;8528;49.976;11.858;2024-03-17T04:38:06;3.70;;;2.70;;
16822;SDS011;8528;49.976;11.858;2024-03-17T04:40:33;3.60;;;2.27;;
16822;SDS011;8528;49.976;11.858;2024-03-17T04:42:59;4.70;;;2.90;;
16822;SDS011;8528;49.976;11.858;2024-03-17T04:45:25;2.77;;;2.37;;
16822;SDS011;8528;49.976;11.858;2024-03-17T04:47:51;4.23;;;2.67;;
16822;SDS011;8528;49.976;11.858;2024-03-17T04:50:17;5.10;;;2.80;;
16822;SDS011;8528;49.976;11.858;2024-03-17T04:52:44;4.37;;;2.50;;
16822;SDS011;8528;49.976;11.858;2024-03-17T04:55:10;4.27;;;2.80;;
16822;SDS011;8528;49.976;11.858;2024-03-17T04:57:35;4.63;;;2.90;;
16822;SDS011;8528;49.976;11.858;2024-03-17T05:00:02;4.10;;;2.50;;
16822;SDS011;8528;49.976;11.858;2024-03-17T05:02:32;6.77;;;2.90;;
16822;SDS011;8528;49.976;11.858;2024-03-17T05:04:58;4.93;;;2.57;;
16822;SDS011;8528;49.976;11.858;2024-03-17T05:07:24;3.33;;;2.67;;
16822;SDS011;8528;49.976;11.858;2024-03-17T05:09:50;5.27;;;2.97;;
16822;SDS011;8528;49.976;11.858;2024-03-17T05:12:17;2.87;;;2.57;;
16822;SDS011;8528;49.976;11.858;2024-03-17T05:14:42;5.40;;;3.13;;
16822;SDS011;8528;49.976;11.858;2024-03-17T05:17:08;3.90;;;2.87;;
16822;SDS011;8528;49.976;11.858;2024-03-17T05:19:34;4.50;;;2.70;;
16822;SDS011;8528;49.976;11.858;2024-03-17T05:22:00;3.00;;;2.50;;
16822;SDS011;8528;49.976;11.858;2024-03-17T05:24:26;3.47;;;2.27;;
16822;SDS011;8528;49.976;11.858;2024-03-17T05:26:52;4.47;;;2.53;;
16822;SDS011;8528;49.976;11.858;2024-03-17T05:29:18;3.27;;;2.60;;
16822;SDS011;8528;49.976;11.858;2024-03-17T05:31:44;4.00;;;2.60;;
16822;SDS011;8528;49.976;11.858;2024-03-17T05:34:10;3.23;;;2.70;;
16822;SDS011;8528;49.976;11.858;2024-03-17T05:36:37;2.50;;;2.30;;
16822;SDS011;8528;49.976;11.858;2024-03-17T05:39:03;2.97;;;2.50;;
16822;SDS011;8528;49.976;11.858;2024-03-17T05:41:29;2.97;;;2.60;;
16822;SDS011;8528;49.976;11.858;2024-03-17T05:43:54;4.57;;;2.90;;
16822;SDS011;8528;49.976;11.858;2024-03-17T05:46:24;4.90;;;3.20;;
16822;SDS011;8528;49.976;11.858;2024-03-17T05:48:53;5.60;;;3.13;;
16822;SDS011;8528;49.976;11.858;2024-03-17T05:51:19;7.13;;;4.00;;
16822;SDS011;8528;49.976;11.858;2024-03-17T05:53:45;6.53;;;4.23;;
16822;SDS011;8528;49.976;11.858;2024-03-17T05:56:11;4.30;;;3.20;;
16822;SDS011;8528;49.976;11.858;2024-03-17T05:58:38;8.17;;;3.90;;
16822;SDS011;8528;49.976;11.858;2024-03-17T06:01:05;6.27;;;3.50;;
16822;SDS011;8528;49.976;11.858;2024-03-17T06:03:37;4.90;;;3.33;;
16822;SDS011;8528;49.976;11.858;2024-03-17T06:06:04;4.63;;;3.03;;
16822;SDS011;8528;49.976;11.858;2024-03-17T06:08:35;5.50;;;3.67;;
16822;SDS011;8528;49.976;11.858;2024-03-17T06:11:01;4.20;;;3.23;;
16822;SDS011;8528;49.976;11.858;2024-03-17T06:13:27;4.63;;;3.27;;
16822;SDS011;8528;49.976;11.858;2024-03-17T06:15:53;3.83;;;3.10;;
16822;SDS011;8528;49.976;11.858;2024-03-17T06:18:20;3.33;;;2.90;;
16822;SDS011;8528;49.976;11.858;2024-03-17T06:20:46;4.40;;;3.17;;
16822;SDS011;8528;49.976;11.858;2024-03-17T06:23:14;4.63;;;2.90;;
16822;SDS011;8528;49.976;11.858;2024-03-17T06:25:45;3.33;;;3.03;;
16822;SDS011;8528;49.976;11.858;2024-03-17T06:28:12;3.80;;;3.10;;
16822;SDS011;8528;49.976;11.858;2024-03-17T06:30:40;4.63;;;3.00;;
16822;SDS011;8528;49.976;11.858;2024-03-17T06:33:12;4.57;;;2.87;;
16822;SDS011;8528;49.976;11.858;2024-03-17T06:35:39;4.07;;;3.07;;
16822;SDS011;8528;49.976;11.858;2024-03-17T06:38:05;7.53;;;3.57;;
16822;SDS011;8528;49.976;11.858;2024-03-17T06:40:38;15.83;;;4.50;;
16822;SDS011;8528;49.976;11.858;2024-03-17T06:43:05;6.40;;;4.27;;
16822;SDS011;8528;49.976;11.858;2024-03-17T06:45:31;6.13;;;3.80;;
16822;SDS011;8528;49.976;11.858;2024-03-17T06:47:58;4.50;;;3.77;;
16822;SDS011;8528;49.976;11.858;2024-03-17T06:50:23;6.97;;;3.77;;
16822;SDS011;8528;49.976;11.858;2024-03-17T06:52:49;4.27;;;3.60;;
16822;SDS011;8528;49.976;11.858;2024-03-17T06:55:17;5.67;;;3.40;;
16822;SDS011;8528;49.976;11.858;2024-03-17T06:57:46;4.57;;;3.70;;
16822;SDS011;8528;49.976;11.858;2024-03-17T07:00:12;4.43;;;3.43;;
16822;SDS011;8528;49.976;11.858;2024-03-17T07:02:40;5.43;;;3.40;;
16822;SDS011;8528;49.976;11.858;2024-03-17T07:05:12;5.93;;;3.50;;
16822;SDS011;8528;49.976;11.858;2024-03-17T07:07:41;4.10;;;3.37;;
16822;SDS011;8528;49.976;11.858;2024-03-17T07:10:07;5.97;;;3.53;;
16822;SDS011;8528;49.976;11.858;2024-03-17T07:12:34;7.13;;;3.63;;
16822;SDS011;8528;49.976;11.858;2024-03-17T07:15:00;5.57;;;3.10;;
16822;SDS011;8528;49.976;11.858;2024-03-17T07:17:26;4.53;;;3.53;;
16822;SDS011;8528;49.976;11.858;2024-03-17T07:19:52;5.27;;;3.33;;
16822;SDS011;8528;49.976;11.858;2024-03-17T07:22:18;4.57;;;3.97;;
16822;SDS011;8528;49.976;11.858;2024-03-17T07:24:43;5.33;;;4.37;;
16822;SDS011;8528;49.976;11.858;2024-03-17T07:27:10;4.20;;;3.80;;
16822;SDS011;8528;49.976;11.858;2024-03-17T07:29:39;5.47;;;3.20;;
16822;SDS011;8528;49.976;11.858;2024-03-17T07:32:05;3.60;;;2.93;;
16822;SDS011;8528;49.976;11.858;2024-03-17T07:34:32;3.50;;;2.77;;
16822;SDS011;8528;49.976;11.858;2024-03-17T07:36:58;4.97;;;3.17;;
16822;SDS011;8528;49.976;11.858;2024-03-17T07:39:31;3.13;;;2.83;;
16822;SDS011;8528;49.976;11.858;2024-03-17T07:41:58;3.80;;;2.77;;
16822;SDS011;8528;49.976;11.858;2024-03-17T07:44:24;4.00;;;2.90;;
16822;SDS011;8528;49.976;11.858;2024-03-17T07:46:51;3.67;;;2.80;;
16822;SDS011;8528;49.976;11.858;2024-03-17T07:49:19;3.30;;;3.00;;
16822;SDS011;8528;49.976;11.858;2024-03-17T07:51:45;2.80;;;2.50;;
16822;SDS011;8528;49.976;11.858;2024-03-17T07:54:11;2.87;;;2.50;;
16822;SDS011;8528;49.976;11.858;2024-03-17T07:56:38;3.87;;;2.53;;
16822;SDS011;8528;49.976;11.858;2024-03-17T07:59:04;2.70;;;2.03;;
16822;SDS011;8528;49.976;11.858;2024-03-17T08:01:37;3.27;;;2.30;;
16822;SDS011;8528;49.976;11.858;2024-03-17T08:04:04;2.90;;;2.60;;
16822;SDS011;8528;49.976;11.858;2024-03-17T08:06:30;3.03;;;2.30;;
16822;SDS011;8528;49.976;11.858;2024-03-17T08:08:56;3.80;;;3.10;;
16822;SDS011;8528;49.976;11.858;2024-03-17T08:11:22;4.20;;;2.60;;
16822;SDS011;8528;49.976;11.858;2024-03-17T08:13:49;3.67;;;2.10;;
16822;SDS011;8528;49.976;11.858;2024-03-17T08:16:15;4.93;;;2.20;;
16822;SDS011;8528;49.976;11.858;2024-03-17T08:18:42;3.93;;;2.23;;
16822;SDS011;8528;49.976;11.858;2024-03-17T08:21:08;3.53;;;2.20;;
16822;SDS011;8528;49.976;11.858;2024-03-17T08:23:34;3.83;;;2.40;;
16822;SDS011;8528;49.976;11.858;2024-03-17T08:26:04;4.37;;;2.80;;
16822;SDS011;8528;49.976;11.858;2024-03-17T08:28:30;3.13;;;2.13;;
16822;SDS011;8528;49.976;11.858;2024-03-17T08:31:00;14.93;;;8.27;;
16822;SDS011;8528;49.976;11.858;2024-03-17T08:33:28;7.83;;;6.27;;
16822;SDS011;8528;49.976;11.858;2024-03-17T08:36:04;8.67;;;5.53;;
16822;SDS011;8528;49.976;11.858;2024-03-17T08:38:32;6.33;;;4.30;;
16822;SDS011;8528;49.976;11.858;2024-03-17T08:41:06;3.13;;;2.43;;
16822;SDS011;8528;49.976;11.858;2024-03-17T08:43:33;3.57;;;2.40;;
16822;SDS011;8528;49.976;11.858;2024-03-17T08:46:01;2.87;;;1.80;;
16822;SDS011;8528;49.976;11.858;2024-03-17T08:48:29;3.83;;;2.10;;
16822;SDS011;8528;49.976;11.858;2024-03-17T08:50:57;4.33;;;3.43;;
16822;SDS011;8528;49.976;11.858;2024-03-17T08:53:24;3.00;;;2.37;;
16822;SDS011;8528;49.976;11.858;2024-03-17T08:55:50;3.43;;;2.00;;
16822;SDS011;8528;49.976;11.858;2024-03-17T08:58:16;2.70;;;2.40;;
16822;SDS011;8528;49.976;11.858;2024-03-17T09:00:43;3.93;;;2.23;;
16822;SDS011;8528;49.976;11.858;2024-03-17T09:03:09;2.57;;;2.07;;
16822;SDS011;8528;49.976;11.858;2024-03-17T09:05:39;2.40;;;2.00;;
16822;SDS011;8528;49.976;11.858;2024-03-17T09:08:18;4.90;;;2.10;;
16822;SDS011;8528;49.976;11.858;2024-03-17T09:10:49;2.73;;;2.20;;
16822;SDS011;8528;49.976;11.858;2024-03-17T09:13:18;2.87;;;2.30;;
16822;SDS011;8528;49.976;11.858;2024-03-17T09:15:58;3.37;;;2.40;;
16822;SDS011;8528;49.976;11.858;2024-03-17T09:18:29;3.20;;;2.73;;
16822;SDS011;8528;49.976;11.858;2024-03-17T09:21:02;3.83;;;2.50;;
16822;SDS011;8528;49.976;11.858;2024-03-17T09:23:35;3.10;;;2.60;;
16822;SDS011;8528;49.976;11.858;2024-03-17T09:26:04;5.27;;;2.77;;
16822;SDS011;8528;49.976;11.858;2024-03-17T09:28:33;4.37;;;2.83;;
16822;SDS011;8528;49.976;11.858;2024-03-17T09:30:59;2.80;;;2.40;;
16822;SDS011;8528;49.976;11.858;2024-03-17T09:33:25;4.10;;;2.90;;
16822;SDS011;8528;49.976;11.858;2024-03-17T09:36:03;3.00;;;2.47;;
16822;SDS011;8528;49.976;11.858;2024-03-17T09:38:32;2.30;;;2.10;;
16822;SDS011;8528;49.976;11.858;2024-03-17T09:40:59;5.03;;;2.30;;
16822;SDS011;8528;49.976;11.858;2024-03-17T09:43:28;3.70;;;2.30;;
16822;SDS011;8528;49.976;11.858;2024-03-17T09:45:58;3.63;;;2.70;;
16822;SDS011;8528;49.976;11.858;2024-03-17T09:48:27;3.28;;;2.00;;
16822;SDS011;8528;49.976;11.858;2024-03-17T09:50:54;2.30;;;2.10;;
16822;SDS011;8528;49.976;11.858;2024-03-17T09:53:31;2.55;;;2.35;;
16822;SDS011;8528;49.976;11.858;2024-03-17T09:55:59;2.58;;;2.30;;
16822;SDS011;8528;49.976;11.858;2024-03-17T09:58:39;2.45;;;2.00;;
16822;SDS011;8528;49.976;11.858;2024-03-17T10:01:05;3.03;;;2.47;;
16822;SDS011;8528;49.976;11.858;2024-03-17T10:03:41;3.08;;;2.78;;
16822;SDS011;8528;49.976;11.858;2024-03-17T10:06:12;3.03;;;2.50;;
16822;SDS011;8528;49.976;11.858;2024-03-17T10:08:43;3.40;;;2.80;;
16822;SDS011;8528;49.976;11.858;2024-03-17T10:11:11;3.50;;;2.37;;
16822;SDS011;8528;49.976;11.858;2024-03-17T10:13:38;2.63;;;2.40;;
16822;SDS011;8528;49.976;11.858;2024-03-17T10:16:04;3.93;;;2.73;;
16822;SDS011;8528;49.976;11.858;2024-03-17T10:18:30;3.17;;;2.47;;
16822;SDS011;8528;49.976;11.858;2024-03-17T10:20:57;2.40;;;2.13;;
16822;SDS011;8528;49.976;11.858;2024-03-17T10:23:25;5.07;;;2.83;;
16822;SDS011;8528;49.976;11.858;2024-03-17T10:25:52;3.10;;;2.80;;
16822;SDS011;8528;49.976;11.858;2024-03-17T10:28:18;2.58;;;2.30;;
16822;SDS011;8528;49.976;11.858;2024-03-17T10:31:00;2.78;;;2.50;;
16822;SDS011;8528;49.976;11.858;2024-03-17T10:33:26;2.63;;;2.42;;
16822;SDS011;8528;49.976;11.858;2024-03-17T10:35:59;3.05;;;2.42;;
16822;SDS011;8528;49.976;11.858;2024-03-17T10:38:26;2.47;;;2.28;;
16822;SDS011;8528;49.976;11.858;2024-03-17T10:40:55;3.20;;;2.88;;
16822;SDS011;8528;49.976;11.858;2024-03-17T10:43:21;3.03;;;2.60;;
16822;SDS011;8528;49.976;11.858;2024-03-17T10:45:53;4.43;;;3.03;;
16822;SDS011;8528;49.976;11.858;2024-03-17T10:48:24;4.20;;;2.40;;
16822;SDS011;8528;49.976;11.858;2024-03-17T10:50:55;3.83;;;2.57;;
16822;SDS011;8528;49.976;11.858;2024-03-17T10:53:25;2.87;;;2.67;;
16822;SDS011;8528;49.976;11.858;2024-03-17T10:55:57;3.05;;;2.05;;
16822;SDS011;8528;49.976;11.858;2024-03-17T11:01:13;2.63;;;2.30;;
16822;SDS011;8528;49.976;11.858;2024-03-17T11:03:39;3.78;;;2.30;;
16822;SDS011;8528;49.976;11.858;2024-03-17T11:06:06;2.85;;;2.28;;
16822;SDS011;8528;49.976;11.858;2024-03-17T11:08:34;2.50;;;2.30;;
16822;SDS011;8528;49.976;11.858;2024-03-17T11:11:01;2.80;;;2.22;;
16822;SDS011;8528;49.976;11.858;2024-03-17T11:13:29;2.40;;;2.17;;
16822;SDS011;8528;49.976;11.858;2024-03-17T11:15:56;3.15;;;2.20;;
16822;SDS011;8528;49.976;11.858;2024-03-17T11:23:40;2.67;;;2.47;;
16822;SDS011;8528;49.976;11.858;2024-03-17T11:26:07;2.50;;;2.28;;
16822;SDS011;8528;49.976;11.858;2024-03-17T11:36:58;2.95;;;2.42;;
16822;SDS011;8528;49.976;11.858;2024-03-17T11:42:15;4.20;;;2.28;;
16822;SDS011;8528;49.976;11.858;2024-03-17T11:44:42;2.28;;;1.98;;
16822;SDS011;8528;49.976;11.858;2024-03-17T11:47:09;2.83;;;2.00;;
16822;SDS011;8528;49.976;11.858;2024-03-17T11:49:36;2.75;;;2.40;;
16822;SDS011;8528;49.976;11.858;2024-03-17T11:52:13;2.30;;;2.10;;
16822;SDS011;8528;49.976;11.858;2024-03-17T11:54:42;2.50;;;2.10;;
16822;SDS011;8528;49.976;11.858;2024-03-17T11:57:10;2.70;;;2.10;;
16822;SDS011;8528;49.976;11.858;2024-03-17T11:59:55;2.28;;;2.08;;
16822;SDS011;8528;49.976;11.858;2024-03-17T12:02:26;4.28;;;2.00;;
16822;SDS011;8528;49.976;11.858;2024-03-17T12:04:53;3.03;;;2.25;;
16822;SDS011;8528;49.976;11.858;2024-03-17T12:07:27;3.20;;;2.30;;
16822;SDS011;8528;49.976;11.858;2024-03-17T12:09:55;3.92;;;2.60;;
16822;SDS011;8528;49.976;11.858;2024-03-17T12:14:51;2.38;;;2.17;;
16822;SDS011;8528;49.976;11.858;2024-03-17T12:17:20;2.70;;;1.80;;
16822;SDS011;8528;49.976;11.858;2024-03-17T12:19:48;4.25;;;2.45;;
16822;SDS011;8528;49.976;11.858;2024-03-17T12:22:15;2.35;;;2.15;;
16822;SDS011;8528;49.976;11.858;2024-03-17T12:24:56;2.75;;;2.40;;
16822;SDS011;8528;49.976;11.858;2024-03-17T12:27:24;2.83;;;2.55;;
16822;SDS011;8528;49.976;11.858;2024-03-17T12:29:52;2.75;;;2.55;;
16822;SDS011;8528;49.976;11.858;2024-03-17T12:32:19;2.35;;;2.15;;
16822;SDS011;8528;49.976;11.858;2024-03-17T12:34:56;3.10;;;2.45;;
16822;SDS011;8528;49.976;11.858;2024-03-17T12:37:26;2.40;;;2.20;;
16822;SDS011;8528;49.976;11.858;2024-03-17T12:39:59;2.88;;;2.40;;
16822;SDS011;8528;49.976;11.858;2024-03-17T12:42:26;3.45;;;2.85;;
16822;SDS011;8528;49.976;11.858;2024-03-17T12:44:53;3.05;;;2.50;;
16822;SDS011;8528;49.976;11.858;2024-03-17T12:47:21;2.50;;;2.30;;
16822;SDS011;8528;49.976;11.858;2024-03-17T12:49:51;2.80;;;2.08;;
16822;SDS011;8528;49.976;11.858;2024-03-17T12:52:22;2.42;;;2.22;;
16822;SDS011;8528;49.976;11.858;2024-03-17T12:54:58;3.22;;;2.80;;
16822;SDS011;8528;49.976;11.858;2024-03-17T12:57:48;3.83;;;2.70;;
16822;SDS011;8528;49.976;11.858;2024-03-17T13:00:33;3.50;;;2.50;;
16822;SDS011;8528;49.976;11.858;2024-03-17T13:03:04;2.93;;;2.70;;
16822;SDS011;8528;49.976;11.858;2024-03-17T13:05:31;3.23;;;2.80;;
16822;SDS011;8528;49.976;11.858;2024-03-17T13:07:58;3.77;;;2.80;;
16822;SDS011;8528;49.976;11.858;2024-03-17T13:10:24;2.73;;;2.53;;
16822;SDS011;8528;49.976;11.858;2024-03-17T13:13:01;2.23;;;2.03;;
16822;SDS011;8528;49.976;11.858;2024-03-17T13:15:28;2.60;;;2.40;;
16822;SDS011;8528;49.976;11.858;2024-03-17T13:17:56;2.80;;;2.60;;
16822;SDS011;8528;49.976;11.858;2024-03-17T13:20:23;3.03;;;2.20;;
16822;SDS011;8528;49.976;11.858;2024-03-17T13:22:50;3.17;;;2.28;;
16822;SDS011;8528;49.976;11.858;2024-03-17T13:25:22;4.00;;;2.55;;
16822;SDS011;8528;49.976;11.858;2024-03-17T13:27:52;3.80;;;2.40;;
16822;SDS011;8528;49.976;11.858;2024-03-17T13:30:18;2.63;;;2.40;;
16822;SDS011;8528;49.976;11.858;2024-03-17T13:32:48;4.23;;;2.53;;
16822;SDS011;8528;49.976;11.858;2024-03-17T13:35:19;2.20;;;2.00;;
16822;SDS011;8528;49.976;11.858;2024-03-17T13:37:46;2.65;;;2.00;;
16822;SDS011;8528;49.976;11.858;2024-03-17T13:40:14;2.80;;;2.58;;
16822;SDS011;8528;49.976;11.858;2024-03-17T13:42:43;4.03;;;2.35;;
16822;SDS011;8528;49.976;11.858;2024-03-17T13:45:10;3.90;;;2.30;;
16822;SDS011;8528;49.976;11.858;2024-03-17T13:47:37;2.97;;;2.42;;
16822;SDS011;8528;49.976;11.858;2024-03-17T13:50:04;2.53;;;2.33;;
16822;SDS011;8528;49.976;11.858;2024-03-17T13:52:35;4.80;;;2.50;;
16822;SDS011;8528;49.976;11.858;2024-03-17T13:55:02;3.17;;;2.40;;
16822;SDS011;8528;49.976;11.858;2024-03-17T13:57:32;2.70;;;2.40;;
16822;SDS011;8528;49.976;11.858;2024-03-17T13:59:59;2.60;;;2.40;;
16822;SDS011;8528;49.976;11.858;2024-03-17T14:02:24;3.87;;;2.70;;
16822;SDS011;8528;49.976;11.858;2024-03-17T14:04:50;2.40;;;2.20;;
16822;SDS011;8528;49.976;11.858;2024-03-17T14:07:17;2.70;;;2.33;;
16822;SDS011;8528;49.976;11.858;2024-03-17T14:09:43;3.37;;;2.30;;
16822;SDS011;8528;49.976;11.858;2024-03-17T14:12:09;2.60;;;2.40;;
16822;SDS011;8528;49.976;11.858;2024-03-17T14:14:35;4.00;;;2.53;;
16822;SDS011;8528;49.976;11.858;2024-03-17T14:17:00;2.77;;;2.43;;
16822;SDS011;8528;49.976;11.858;2024-03-17T14:19:26;2.80;;;2.47;;
16822;SDS011;8528;49.976;11.858;2024-03-17T14:21:52;3.17;;;2.50;;
16822;SDS011;8528;49.976;11.858;2024-03-17T14:24:18;3.20;;;2.90;;
16822;SDS011;8528;49.976;11.858;2024-03-17T14:26:44;4.50;;;2.60;;
16822;SDS011;8528;49.976;11.858;2024-03-17T14:29:10;2.63;;;2.37;;
16822;SDS011;8528;49.976;11.858;2024-03-17T14:31:36;4.90;;;2.40;;
16822;SDS011;8528;49.976;11.858;2024-03-17T14:34:06;2.60;;;2.40;;
16822;SDS011;8528;49.976;11.858;2024-03-17T14:36:32;2.83;;;2.30;;
16822;SDS011;8528;49.976;11.858;2024-03-17T14:39:01;5.80;;;2.87;;
16822;SDS011;8528;49.976;11.858;2024-03-17T14:41:28;5.00;;;3.13;;
16822;SDS011;8528;49.976;11.858;2024-03-17T14:43:57;2.90;;;2.60;;
16822;SDS011;8528;49.976;11.858;2024-03-17T14:46:26;4.00;;;2.73;;
16822;SDS011;8528;49.976;11.858;2024-03-17T14:48:53;2.73;;;2.53;;
16822;SDS011;8528;49.976;11.858;2024-03-17T14:51:19;3.87;;;2.83;;
16822;SDS011;8528;49.976;11.858;2024-03-17T14:53:47;4.73;;;3.10;;
16822;SDS011;8528;49.976;11.858;2024-03-17T14:56:19;3.47;;;3.17;;
16822;SDS011;8528;49.976;11.858;2024-03-17T14:58:45;4.50;;;2.80;;
16822;SDS011;8528;49.976;11.858;2024-03-17T15:01:12;3.20;;;2.83;;
16822;SDS011;8528;49.976;11.858;2024-03-17T15:03:39;3.50;;;3.20;;
16822;SDS011;8528;49.976;11.858;2024-03-17T15:06:11;4.50;;;3.20;;
16822;SDS011;8528;49.976;11.858;2024-03-17T15:08:40;3.27;;;2.93;;
16822;SDS011;8528;49.976;11.858;2024-03-17T15:11:07;3.13;;;2.83;;
16822;SDS011;8528;49.976;11.858;2024-03-17T15:13:34;4.20;;;3.10;;